createdAt,value
2018-03-16T00:00:00.225Z,75
2018-03-16T00:01:00.933Z,75
2018-03-16T00:02:01.640Z,74
2018-03-16T00:03:02.379Z,74
2018-03-16T00:04:03.064Z,74
2018-03-16T00:05:03.769Z,73
2018-03-16T00:06:04.476Z,72
2018-03-16T00:07:05.182Z,73
2018-03-16T00:08:05.889Z,73
2018-03-16T00:09:06.596Z,73
2018-03-16T00:10:07.303Z,72
2018-03-16T00:11:08.012Z,73
2018-03-16T00:12:08.718Z,72
2018-03-16T00:13:09.424Z,72
2018-03-16T00:14:10.132Z,72
2018-03-16T00:15:10.836Z,72
2018-03-16T00:16:11.554Z,73
2018-03-16T00:17:12.261Z,73
2018-03-16T00:18:12.979Z,72
2018-03-16T00:19:13.685Z,73
2018-03-16T00:20:14.408Z,72
2018-03-16T00:21:15.120Z,73
2018-03-16T00:22:15.828Z,72
2018-03-16T00:23:16.535Z,73
2018-03-16T00:24:17.240Z,73
2018-03-16T00:25:17.946Z,73
2018-03-16T00:26:18.662Z,73
2018-03-16T00:27:19.376Z,74
2018-03-16T00:28:20.085Z,73
2018-03-16T00:29:20.790Z,73
2018-03-16T00:30:21.496Z,73
2018-03-16T00:31:22.203Z,73
2018-03-16T00:32:22.910Z,73
2018-03-16T00:33:23.618Z,74
2018-03-16T00:34:24.322Z,73
2018-03-16T00:35:25.034Z,73
2018-03-16T00:36:25.775Z,73
2018-03-16T00:37:26.451Z,73
2018-03-16T00:38:27.157Z,72
2018-03-16T00:39:27.880Z,73
2018-03-16T00:40:28.581Z,72
2018-03-16T00:41:29.301Z,72
2018-03-16T00:42:30.009Z,73
2018-03-16T00:43:30.728Z,72
2018-03-16T00:44:31.442Z,72
2018-03-16T00:45:32.159Z,73
2018-03-16T00:46:32.878Z,73
2018-03-16T00:47:33.583Z,73
2018-03-16T00:48:34.292Z,73
2018-03-16T00:49:35.007Z,73
2018-03-16T00:50:35.715Z,73
2018-03-16T00:51:36.423Z,73
2018-03-16T00:52:37.143Z,73
2018-03-16T00:53:37.858Z,73
2018-03-16T00:54:38.563Z,73
2018-03-16T00:55:39.268Z,73
2018-03-16T00:56:39.986Z,73
2018-03-16T00:57:40.691Z,73
2018-03-16T00:58:41.397Z,73
2018-03-16T00:59:42.113Z,73
2018-03-16T01:00:42.826Z,72
2018-03-16T01:01:43.537Z,73
2018-03-16T01:02:44.242Z,73
2018-03-16T01:03:44.948Z,73
2018-03-16T01:04:45.654Z,73
2018-03-16T01:05:46.372Z,73
2018-03-16T01:06:47.078Z,72
2018-03-16T01:07:47.784Z,73
2018-03-16T01:08:48.489Z,73
2018-03-16T01:09:49.195Z,73
2018-03-16T01:10:49.902Z,73
2018-03-16T01:12:51.242Z,73
2018-03-16T01:13:51.969Z,72
2018-03-16T01:14:52.698Z,73
2018-03-16T01:15:53.415Z,73
2018-03-16T01:16:54.132Z,73
2018-03-16T01:17:54.852Z,73
2018-03-16T01:18:55.570Z,73
2018-03-16T01:19:56.287Z,73
2018-03-16T01:20:57.009Z,73
2018-03-16T01:21:57.759Z,73
2018-03-16T01:22:58.522Z,73
2018-03-16T01:23:59.239Z,72
2018-03-16T01:24:59.980Z,72
2018-03-16T01:26:00.734Z,73
2018-03-16T01:27:01.497Z,73
2018-03-16T01:28:02.213Z,72
2018-03-16T01:29:02.931Z,73
2018-03-16T01:30:03.649Z,74
2018-03-16T01:31:04.366Z,73
2018-03-16T01:32:05.108Z,74
2018-03-16T01:33:05.852Z,73
2018-03-16T01:34:06.567Z,73
2018-03-16T01:35:07.321Z,73
2018-03-16T01:36:08.076Z,73
2018-03-16T01:37:08.807Z,73
2018-03-16T01:38:09.535Z,73
2018-03-16T01:39:10.250Z,74
2018-03-16T01:40:10.970Z,74
2018-03-16T01:41:11.707Z,73
2018-03-16T01:42:12.435Z,73
2018-03-16T01:43:13.163Z,72
2018-03-16T01:44:13.915Z,73
2018-03-16T01:45:14.656Z,72
2018-03-16T01:46:15.384Z,73
2018-03-16T01:47:16.138Z,73
2018-03-16T01:48:16.897Z,72
2018-03-16T01:49:17.639Z,72
2018-03-16T01:50:18.390Z,73
2018-03-16T01:51:19.109Z,72
2018-03-16T01:52:19.830Z,72
2018-03-16T01:53:20.557Z,73
2018-03-16T01:54:21.275Z,73
2018-03-16T01:55:21.990Z,72
2018-03-16T01:56:22.714Z,72
2018-03-16T01:57:23.437Z,72
2018-03-16T01:58:24.191Z,73
2018-03-16T01:59:24.948Z,72
2018-03-16T02:00:25.672Z,73
2018-03-16T02:01:26.388Z,73
2018-03-16T02:02:27.107Z,72
2018-03-16T02:03:27.858Z,72
2018-03-16T02:04:28.577Z,72
2018-03-16T02:05:29.297Z,73
2018-03-16T02:06:30.013Z,72
2018-03-16T02:07:30.731Z,73
2018-03-16T02:08:31.451Z,73
2018-03-16T02:09:32.178Z,72
2018-03-16T02:10:32.928Z,73
2018-03-16T02:11:33.647Z,73
2018-03-16T02:12:34.366Z,73
2018-03-16T02:13:35.093Z,72
2018-03-16T02:14:35.810Z,72
2018-03-16T02:15:36.553Z,72
2018-03-16T02:16:37.280Z,73
2018-03-16T02:17:37.999Z,73
2018-03-16T02:18:38.718Z,73
2018-03-16T02:19:39.464Z,73
2018-03-16T02:20:40.189Z,73
2018-03-16T02:21:40.954Z,72
2018-03-16T02:22:41.718Z,72
2018-03-16T02:23:42.448Z,71
2018-03-16T02:24:43.200Z,72
2018-03-16T02:25:43.928Z,72
2018-03-16T02:26:44.656Z,72
2018-03-16T02:27:45.384Z,72
2018-03-16T02:28:46.147Z,72
2018-03-16T02:29:46.879Z,71
2018-03-16T02:30:47.631Z,71
2018-03-16T02:31:48.348Z,71
2018-03-16T02:32:49.066Z,72
2018-03-16T02:33:49.795Z,72
2018-03-16T02:34:50.525Z,72
2018-03-16T02:35:51.245Z,72
2018-03-16T02:36:51.975Z,72
2018-03-16T02:37:52.688Z,72
2018-03-16T02:38:53.407Z,71
2018-03-16T02:39:54.136Z,71
2018-03-16T02:40:54.862Z,72
2018-03-16T02:41:55.581Z,72
2018-03-16T02:42:56.299Z,71
2018-03-16T02:43:57.015Z,71
2018-03-16T02:44:57.731Z,71
2018-03-16T02:45:58.461Z,71
2018-03-16T02:46:59.177Z,70
2018-03-16T02:47:59.908Z,71
2018-03-16T02:49:00.637Z,71
2018-03-16T02:50:01.356Z,70
2018-03-16T02:51:02.087Z,70
2018-03-16T02:52:02.851Z,72
2018-03-16T02:53:03.596Z,71
2018-03-16T02:55:19.557Z,71
2018-03-16T02:56:20.309Z,71
2018-03-16T02:57:21.028Z,70
2018-03-16T02:58:21.780Z,70
2018-03-16T02:59:22.543Z,70
2018-03-16T03:00:23.272Z,71
2018-03-16T03:01:23.989Z,70
2018-03-16T03:02:24.707Z,71
2018-03-16T03:03:25.424Z,70
2018-03-16T03:04:26.151Z,70
2018-03-16T03:05:26.858Z,70
2018-03-16T03:06:27.574Z,71
2018-03-16T03:07:28.293Z,70
2018-03-16T03:08:29.046Z,70
2018-03-16T03:09:29.772Z,70
2018-03-16T03:10:30.500Z,70
2018-03-16T03:11:31.216Z,70
2018-03-16T03:12:31.952Z,69
2018-03-16T03:13:32.665Z,68
2018-03-16T03:14:33.379Z,69
2018-03-16T03:15:34.099Z,70
2018-03-16T03:16:34.846Z,70
2018-03-16T03:17:35.574Z,70
2018-03-16T03:18:36.304Z,70
2018-03-16T03:19:37.021Z,69
2018-03-16T03:20:37.748Z,69
2018-03-16T03:21:38.476Z,69
2018-03-16T03:22:39.204Z,69
2018-03-16T03:23:39.932Z,70
2018-03-16T03:24:40.686Z,69
2018-03-16T03:25:41.437Z,69
2018-03-16T03:26:42.156Z,69
2018-03-16T03:27:42.894Z,69
2018-03-16T03:28:43.622Z,70
2018-03-16T03:29:44.376Z,69
2018-03-16T03:30:45.107Z,69
2018-03-16T03:31:45.853Z,70
2018-03-16T03:32:46.581Z,70
2018-03-16T03:33:47.310Z,70
2018-03-16T03:34:48.065Z,69
2018-03-16T03:35:48.780Z,69
2018-03-16T03:36:49.510Z,68
2018-03-16T03:37:50.238Z,69
2018-03-16T03:38:50.970Z,70
2018-03-16T03:39:51.720Z,69
2018-03-16T03:40:52.439Z,69
2018-03-16T03:41:53.158Z,69
2018-03-16T03:42:53.875Z,69
2018-03-16T03:43:54.604Z,68
2018-03-16T03:44:55.332Z,68
2018-03-16T03:45:56.052Z,68
2018-03-16T03:46:56.770Z,68
2018-03-16T03:47:57.500Z,68
2018-03-16T03:48:58.216Z,68
2018-03-16T03:49:58.934Z,68
2018-03-16T03:50:59.685Z,68
2018-03-16T03:52:00.400Z,68
2018-03-16T03:53:01.129Z,68
2018-03-16T03:54:01.852Z,68
2018-03-16T03:55:02.588Z,68
2018-03-16T03:56:03.319Z,68
2018-03-16T03:57:04.048Z,68
2018-03-16T03:58:04.798Z,68
2018-03-16T03:59:05.517Z,68
2018-03-16T04:00:06.256Z,68
2018-03-16T04:01:06.987Z,68
2018-03-16T04:02:07.714Z,67
2018-03-16T04:03:08.433Z,68
2018-03-16T04:04:09.163Z,67
2018-03-16T04:05:09.880Z,67
2018-03-16T04:06:10.598Z,67
2018-03-16T04:07:11.316Z,67
2018-03-16T04:08:12.032Z,67
2018-03-16T04:09:12.761Z,66
2018-03-16T04:10:13.488Z,66
2018-03-16T04:11:14.203Z,67
2018-03-16T04:12:14.959Z,67
2018-03-16T04:13:15.674Z,67
2018-03-16T04:14:16.391Z,66
2018-03-16T04:15:17.121Z,66
2018-03-16T04:16:17.849Z,66
2018-03-16T04:17:18.566Z,66
2018-03-16T04:18:19.284Z,66
2018-03-16T04:19:20.014Z,66
2018-03-16T04:20:20.730Z,66
2018-03-16T04:21:21.449Z,65
2018-03-16T04:22:22.164Z,65
2018-03-16T04:23:22.882Z,65
2018-03-16T04:24:23.601Z,65
2018-03-16T04:25:24.343Z,65
2018-03-16T04:26:25.057Z,65
2018-03-16T04:27:25.777Z,64
2018-03-16T04:28:26.531Z,64
2018-03-16T04:29:27.248Z,65
2018-03-16T04:30:27.967Z,64
2018-03-16T04:31:28.696Z,64
2018-03-16T04:32:29.414Z,64
2018-03-16T04:33:30.132Z,64
2018-03-16T04:34:30.881Z,64
2018-03-16T04:35:31.609Z,63
2018-03-16T04:36:32.361Z,63
2018-03-16T04:37:33.079Z,64
2018-03-16T04:38:33.809Z,64
2018-03-16T04:39:34.573Z,64
2018-03-16T04:40:35.293Z,63
2018-03-16T04:41:36.032Z,63
2018-03-16T04:42:36.752Z,63
2018-03-16T04:43:37.493Z,63
2018-03-16T04:44:38.212Z,63
2018-03-16T04:45:38.941Z,63
2018-03-16T04:46:39.704Z,62
2018-03-16T04:47:40.433Z,62
2018-03-16T04:48:41.165Z,62
2018-03-16T04:49:41.892Z,62
2018-03-16T04:50:42.620Z,62
2018-03-16T04:51:43.340Z,62
2018-03-16T04:52:44.082Z,62
2018-03-16T04:53:44.813Z,62
2018-03-16T04:54:45.573Z,62
2018-03-16T04:55:46.305Z,62
2018-03-16T04:56:47.023Z,62
2018-03-16T04:57:47.741Z,62
2018-03-16T04:58:48.470Z,62
2018-03-16T04:59:49.199Z,62
2018-03-16T05:00:49.919Z,62
2018-03-16T05:01:50.638Z,61
2018-03-16T05:02:51.357Z,61
2018-03-16T05:03:52.111Z,61
2018-03-16T05:04:52.831Z,61
2018-03-16T05:05:53.559Z,61
2018-03-16T05:06:54.287Z,61
2018-03-16T05:07:55.005Z,61
2018-03-16T05:08:55.723Z,61
2018-03-16T05:09:56.440Z,61
2018-03-16T05:10:57.170Z,61
2018-03-16T05:11:57.899Z,60
2018-03-16T05:12:58.632Z,60
2018-03-16T05:13:59.350Z,61
2018-03-16T05:15:00.067Z,60
2018-03-16T05:16:00.798Z,60
2018-03-16T05:17:01.525Z,60
2018-03-16T05:18:02.271Z,60
2018-03-16T05:19:02.973Z,61
2018-03-16T05:20:03.704Z,60
2018-03-16T05:21:04.469Z,60
2018-03-16T05:22:05.188Z,60
2018-03-16T05:23:05.918Z,60
2018-03-16T05:24:06.636Z,60
2018-03-16T05:25:07.352Z,60
2018-03-16T05:26:08.071Z,60
2018-03-16T05:27:08.800Z,60
2018-03-16T05:28:09.567Z,60
2018-03-16T05:29:10.292Z,60
2018-03-16T05:30:11.044Z,60
2018-03-16T05:31:11.774Z,60
2018-03-16T05:32:12.493Z,60
2018-03-16T05:33:13.221Z,60
2018-03-16T05:34:13.987Z,60
2018-03-16T05:35:14.716Z,60
2018-03-16T05:36:15.436Z,60
2018-03-16T05:37:16.167Z,60
2018-03-16T05:38:16.920Z,60
2018-03-16T05:39:17.672Z,59
2018-03-16T05:40:18.390Z,59
2018-03-16T05:41:19.109Z,59
2018-03-16T05:42:19.842Z,59
2018-03-16T05:43:20.568Z,59
2018-03-16T05:44:21.297Z,59
2018-03-16T05:45:22.027Z,59
2018-03-16T05:46:22.793Z,59
2018-03-16T05:47:23.513Z,60
2018-03-16T05:48:24.233Z,60
2018-03-16T05:49:24.952Z,60
2018-03-16T05:50:25.695Z,59
2018-03-16T05:51:26.438Z,59
2018-03-16T05:52:27.154Z,59
2018-03-16T05:53:27.873Z,59
2018-03-16T05:54:28.588Z,59
2018-03-16T05:55:29.318Z,59
2018-03-16T05:56:30.087Z,59
2018-03-16T05:57:30.838Z,59
2018-03-16T05:58:31.570Z,59
2018-03-16T05:59:32.290Z,59
2018-03-16T06:00:33.008Z,59
2018-03-16T06:01:33.761Z,59
2018-03-16T06:02:34.526Z,59
2018-03-16T06:03:35.259Z,59
2018-03-16T06:04:36.012Z,59
2018-03-16T06:05:36.732Z,59
2018-03-16T06:06:37.448Z,58
2018-03-16T06:07:38.192Z,58
2018-03-16T06:08:38.924Z,59
2018-03-16T06:09:39.644Z,59
2018-03-16T06:10:40.367Z,59
2018-03-16T06:11:41.102Z,59
2018-03-16T06:12:41.815Z,58
2018-03-16T06:13:42.536Z,58
2018-03-16T06:14:43.254Z,58
2018-03-16T06:15:43.976Z,58
2018-03-16T06:16:44.706Z,58
2018-03-16T06:17:45.426Z,58
2018-03-16T06:18:46.146Z,58
2018-03-16T06:19:46.877Z,58
2018-03-16T06:20:47.610Z,58
2018-03-16T06:21:48.330Z,58
2018-03-16T06:22:49.054Z,58
2018-03-16T06:23:49.787Z,58
2018-03-16T06:24:50.540Z,58
2018-03-16T06:25:51.274Z,58
2018-03-16T06:26:51.997Z,58
2018-03-16T06:27:52.741Z,58
2018-03-16T06:28:53.474Z,58
2018-03-16T06:29:54.243Z,58
2018-03-16T06:30:54.999Z,58
2018-03-16T06:31:55.720Z,58
2018-03-16T06:32:56.442Z,58
2018-03-16T06:33:57.204Z,58
2018-03-16T06:34:57.896Z,58
2018-03-16T06:35:58.629Z,58
2018-03-16T06:36:59.360Z,58
2018-03-16T06:38:00.129Z,58
2018-03-16T06:39:00.860Z,58
2018-03-16T06:40:01.584Z,58
2018-03-16T06:41:02.317Z,58
2018-03-16T06:42:03.036Z,58
2018-03-16T06:43:03.758Z,58
2018-03-16T06:44:04.491Z,58
2018-03-16T06:45:05.379Z,58
2018-03-16T06:46:05.976Z,59
2018-03-16T06:47:06.698Z,58
2018-03-16T06:48:07.419Z,58
2018-03-16T06:49:08.141Z,58
2018-03-16T06:50:08.861Z,58
2018-03-16T06:51:09.593Z,58
2018-03-16T06:52:10.313Z,58
2018-03-16T06:53:11.039Z,58
2018-03-16T06:54:11.757Z,58
2018-03-16T06:55:12.488Z,59
2018-03-16T06:56:13.211Z,58
2018-03-16T06:57:13.957Z,58
2018-03-16T06:58:14.680Z,59
2018-03-16T06:59:15.402Z,59
2018-03-16T07:00:16.143Z,58
2018-03-16T07:01:16.875Z,58
2018-03-16T07:02:17.596Z,58
2018-03-16T07:03:18.364Z,58
2018-03-16T07:04:19.048Z,59
2018-03-16T07:05:19.768Z,59
2018-03-16T07:06:20.516Z,59
2018-03-16T07:07:21.232Z,59
2018-03-16T07:08:21.988Z,58
2018-03-16T07:09:22.754Z,58
2018-03-16T07:10:23.477Z,58
2018-03-16T07:11:24.196Z,58
2018-03-16T07:12:24.928Z,58
2018-03-16T07:13:25.696Z,57
2018-03-16T07:14:26.455Z,58
2018-03-16T07:15:27.187Z,57
2018-03-16T07:16:27.909Z,58
2018-03-16T07:17:28.644Z,58
2018-03-16T07:18:29.364Z,58
2018-03-16T07:19:30.088Z,57
2018-03-16T07:20:30.833Z,57
2018-03-16T07:21:31.569Z,58
2018-03-16T07:22:32.292Z,58
2018-03-16T07:23:33.014Z,58
2018-03-16T07:24:33.735Z,59
2018-03-16T07:25:34.466Z,58
2018-03-16T07:26:35.185Z,58
2018-03-16T07:27:35.921Z,58
2018-03-16T07:28:36.641Z,58
2018-03-16T07:29:37.402Z,59
2018-03-16T07:30:38.097Z,59
2018-03-16T07:31:38.833Z,59
2018-03-16T07:32:39.591Z,58
2018-03-16T07:33:40.339Z,59
2018-03-16T07:34:41.058Z,58
2018-03-16T07:35:41.816Z,59
2018-03-16T07:36:42.549Z,59
2018-03-16T07:37:43.308Z,60
2018-03-16T07:38:44.043Z,59
2018-03-16T07:39:44.762Z,59
2018-03-16T07:40:45.497Z,59
2018-03-16T07:41:46.254Z,58
2018-03-16T07:42:47.012Z,59
2018-03-16T07:43:47.697Z,59
2018-03-16T07:44:48.419Z,58
2018-03-16T07:45:49.152Z,58
2018-03-16T07:46:49.886Z,58
2018-03-16T07:47:50.621Z,58
2018-03-16T07:48:51.346Z,58
2018-03-16T07:49:52.079Z,58
2018-03-16T07:50:52.813Z,58
2018-03-16T07:51:53.535Z,58
2018-03-16T07:52:54.258Z,58
2018-03-16T07:53:54.994Z,57
2018-03-16T07:54:55.716Z,58
2018-03-16T07:55:56.437Z,58
2018-03-16T07:56:57.159Z,58
2018-03-16T07:57:57.881Z,58
2018-03-16T07:58:58.627Z,58
2018-03-16T07:59:59.381Z,58
2018-03-16T08:01:00.114Z,58
2018-03-16T08:02:00.837Z,58
2018-03-16T08:03:01.569Z,58
2018-03-16T08:04:02.302Z,58
2018-03-16T08:05:03.036Z,59
2018-03-16T08:06:03.794Z,59
2018-03-16T08:07:04.527Z,59
2018-03-16T08:08:05.250Z,59
2018-03-16T08:09:05.970Z,59
2018-03-16T08:10:06.694Z,59
2018-03-16T08:11:07.413Z,58
2018-03-16T08:12:08.155Z,58
2018-03-16T08:13:08.890Z,59
2018-03-16T08:14:09.656Z,59
2018-03-16T08:15:10.453Z,59
2018-03-16T08:16:11.105Z,59
2018-03-16T08:17:11.858Z,59
2018-03-16T08:18:12.626Z,59
2018-03-16T08:19:13.346Z,59
2018-03-16T08:20:14.122Z,60
2018-03-16T08:21:14.822Z,59
2018-03-16T08:22:15.569Z,59
2018-03-16T08:23:16.289Z,59
2018-03-16T08:24:17.010Z,59
2018-03-16T08:25:17.734Z,59
2018-03-16T08:26:18.476Z,59
2018-03-16T08:27:19.198Z,59
2018-03-16T08:28:19.932Z,59
2018-03-16T08:29:20.690Z,59
2018-03-16T08:30:21.423Z,59
2018-03-16T08:31:22.158Z,59
2018-03-16T08:32:22.879Z,59
2018-03-16T08:33:23.599Z,59
2018-03-16T08:34:24.332Z,59
2018-03-16T08:35:25.054Z,59
2018-03-16T08:36:25.801Z,59
2018-03-16T08:37:26.537Z,59
2018-03-16T08:38:27.269Z,59
2018-03-16T08:39:28.005Z,60
2018-03-16T08:40:28.756Z,59
2018-03-16T08:41:29.479Z,59
2018-03-16T08:42:30.199Z,59
2018-03-16T08:43:30.932Z,59
2018-03-16T08:44:31.653Z,59
2018-03-16T08:45:32.374Z,59
2018-03-16T08:46:33.096Z,59
2018-03-16T08:47:33.816Z,60
2018-03-16T08:48:34.539Z,60
2018-03-16T08:49:35.271Z,60
2018-03-16T08:50:36.029Z,59
2018-03-16T08:51:36.751Z,59
2018-03-16T08:52:37.496Z,59
2018-03-16T08:53:38.220Z,60
2018-03-16T08:54:38.963Z,60
2018-03-16T08:55:39.720Z,59
2018-03-16T08:56:40.454Z,59
2018-03-16T08:57:41.176Z,59
2018-03-16T08:58:41.896Z,59
2018-03-16T08:59:42.630Z,59
2018-03-16T09:00:43.351Z,59
2018-03-16T09:01:44.082Z,59
2018-03-16T09:02:44.815Z,59
2018-03-16T09:03:45.547Z,59
2018-03-16T09:04:46.281Z,58
2018-03-16T09:05:47.002Z,58
2018-03-16T09:06:47.726Z,58
2018-03-16T09:07:48.450Z,58
2018-03-16T09:08:49.171Z,58
2018-03-16T09:09:49.909Z,58
2018-03-16T09:10:50.637Z,58
2018-03-16T09:11:51.361Z,58
2018-03-16T09:12:52.094Z,59
2018-03-16T09:13:52.862Z,59
2018-03-16T09:14:53.584Z,58
2018-03-16T09:15:54.309Z,59
2018-03-16T09:16:55.042Z,58
2018-03-16T09:17:55.775Z,59
2018-03-16T09:18:56.500Z,59
2018-03-16T09:19:57.257Z,60
2018-03-16T09:20:57.990Z,59
2018-03-16T09:21:58.710Z,60
2018-03-16T09:22:59.455Z,59
2018-03-16T09:24:00.188Z,59
2018-03-16T09:25:00.910Z,59
2018-03-16T09:26:01.632Z,59
2018-03-16T09:27:02.366Z,59
2018-03-16T09:28:03.088Z,59
2018-03-16T09:29:03.811Z,58
2018-03-16T09:30:04.533Z,58
2018-03-16T09:31:05.256Z,58
2018-03-16T09:32:05.978Z,59
2018-03-16T09:33:06.709Z,59
2018-03-16T09:34:07.432Z,59
2018-03-16T09:35:08.153Z,59
2018-03-16T09:36:08.872Z,60
2018-03-16T09:37:09.614Z,59
2018-03-16T09:38:10.336Z,59
2018-03-16T09:39:11.059Z,59
2018-03-16T09:40:11.806Z,59
2018-03-16T09:41:12.553Z,59
2018-03-16T09:42:13.275Z,59
2018-03-16T09:43:14.023Z,58
2018-03-16T09:44:14.755Z,58
2018-03-16T09:45:15.488Z,58
2018-03-16T09:46:16.267Z,58
2018-03-16T09:47:16.976Z,59
2018-03-16T09:48:17.708Z,60
2018-03-16T09:49:18.431Z,59
2018-03-16T09:50:19.165Z,60
2018-03-16T09:51:19.885Z,60
2018-03-16T09:52:20.608Z,60
2018-03-16T09:53:21.341Z,61
2018-03-16T09:54:22.059Z,60
2018-03-16T09:55:22.780Z,60
2018-03-16T09:56:23.501Z,60
2018-03-16T09:57:24.223Z,60
2018-03-16T09:58:24.956Z,60
2018-03-16T09:59:25.711Z,60
2018-03-16T10:00:26.433Z,59
2018-03-16T10:01:27.154Z,59
2018-03-16T10:02:27.898Z,60
2018-03-16T10:03:28.630Z,59
2018-03-16T10:04:29.399Z,60
2018-03-16T10:05:30.133Z,59
2018-03-16T10:06:30.865Z,60
2018-03-16T10:07:31.599Z,59
2018-03-16T10:08:32.328Z,60
2018-03-16T10:09:33.058Z,60
2018-03-16T10:10:33.791Z,59
2018-03-16T10:11:34.516Z,59
2018-03-16T10:12:35.242Z,60
2018-03-16T10:13:35.967Z,60
2018-03-16T10:14:36.727Z,60
2018-03-16T10:15:37.449Z,60
2018-03-16T10:16:38.174Z,60
2018-03-16T10:17:38.908Z,60
2018-03-16T10:18:39.644Z,59
2018-03-16T10:19:40.378Z,59
2018-03-16T10:20:41.146Z,59
2018-03-16T10:21:41.874Z,59
2018-03-16T10:22:42.592Z,60
2018-03-16T10:23:43.313Z,60
2018-03-16T10:24:44.034Z,60
2018-03-16T10:25:44.781Z,60
2018-03-16T10:26:45.506Z,60
2018-03-16T10:27:46.265Z,60
2018-03-16T10:28:46.988Z,60
2018-03-16T10:29:47.709Z,61
2018-03-16T10:30:48.457Z,60
2018-03-16T10:31:49.179Z,60
2018-03-16T10:32:49.902Z,59
2018-03-16T10:33:50.624Z,60
2018-03-16T10:34:51.348Z,61
2018-03-16T10:35:52.081Z,61
2018-03-16T10:36:52.840Z,60
2018-03-16T10:37:53.574Z,60
2018-03-16T10:38:54.310Z,59
2018-03-16T10:39:55.066Z,59
2018-03-16T10:40:55.788Z,59
2018-03-16T10:41:56.535Z,59
2018-03-16T10:42:57.260Z,60
2018-03-16T10:43:57.981Z,60
2018-03-16T10:44:58.701Z,60
2018-03-16T10:45:59.425Z,59
2018-03-16T10:47:00.184Z,60
2018-03-16T10:48:00.908Z,60
2018-03-16T10:49:01.635Z,60
2018-03-16T10:50:02.363Z,61
2018-03-16T10:51:03.085Z,62
2018-03-16T10:52:03.809Z,62
2018-03-16T10:53:04.531Z,62
2018-03-16T10:54:05.256Z,62
2018-03-16T10:55:05.977Z,62
2018-03-16T10:56:06.712Z,62
2018-03-16T10:57:07.444Z,63
2018-03-16T10:58:08.200Z,61
2018-03-16T10:59:08.927Z,62
2018-03-16T11:00:09.648Z,61
2018-03-16T11:01:10.396Z,62
2018-03-16T11:02:11.118Z,61
2018-03-16T11:03:11.843Z,61
2018-03-16T11:04:12.565Z,61
2018-03-16T11:05:13.287Z,62
2018-03-16T11:06:14.011Z,61
2018-03-16T11:07:14.743Z,61
2018-03-16T11:08:15.498Z,61
2018-03-16T11:09:16.259Z,62
2018-03-16T11:10:16.958Z,62
2018-03-16T11:11:17.691Z,61
2018-03-16T11:12:18.425Z,62
2018-03-16T11:13:19.199Z,62
2018-03-16T11:14:19.964Z,61
2018-03-16T11:15:20.734Z,62
2018-03-16T11:16:21.466Z,61
2018-03-16T11:17:22.225Z,62
2018-03-16T11:18:22.959Z,63
2018-03-16T11:19:23.729Z,63
2018-03-16T11:20:24.487Z,62
2018-03-16T11:21:25.207Z,60
2018-03-16T11:22:25.943Z,61
2018-03-16T11:23:26.686Z,62
2018-03-16T11:24:27.418Z,62
2018-03-16T11:25:28.141Z,62
2018-03-16T11:26:28.875Z,62
2018-03-16T11:27:29.633Z,62
2018-03-16T11:28:30.358Z,62
2018-03-16T11:29:31.106Z,61
2018-03-16T11:30:31.827Z,62
2018-03-16T11:31:32.555Z,63
2018-03-16T11:32:33.275Z,63
2018-03-16T11:33:33.999Z,63
2018-03-16T11:34:34.723Z,63
2018-03-16T11:35:35.455Z,63
2018-03-16T11:36:36.213Z,63
2018-03-16T11:37:36.941Z,62
2018-03-16T11:38:37.664Z,61
2018-03-16T11:39:38.401Z,61
2018-03-16T11:40:39.123Z,61
2018-03-16T11:41:39.866Z,62
2018-03-16T11:42:40.624Z,62
2018-03-16T11:43:41.384Z,61
2018-03-16T11:44:42.119Z,61
2018-03-16T11:45:42.880Z,61
2018-03-16T11:46:43.603Z,63
2018-03-16T11:47:44.342Z,63
2018-03-16T11:48:45.092Z,62
2018-03-16T11:49:45.829Z,62
2018-03-16T11:50:46.552Z,62
2018-03-16T11:51:47.278Z,62
2018-03-16T11:52:48.000Z,62
2018-03-16T11:53:48.722Z,63
2018-03-16T11:54:49.458Z,62
2018-03-16T11:55:50.182Z,62
2018-03-16T11:56:50.907Z,63
2018-03-16T11:57:51.642Z,62
2018-03-16T11:58:52.367Z,63
2018-03-16T11:59:53.101Z,62
2018-03-16T12:00:53.824Z,62
2018-03-16T12:01:54.583Z,61
2018-03-16T12:02:55.307Z,62
2018-03-16T12:03:56.032Z,61
2018-03-16T12:04:56.766Z,63
2018-03-16T12:05:57.501Z,63
2018-03-16T12:06:58.221Z,64
2018-03-16T12:07:58.954Z,64
2018-03-16T12:08:59.669Z,63
2018-03-16T12:10:00.402Z,62
2018-03-16T12:11:01.137Z,61
2018-03-16T12:12:01.862Z,62
2018-03-16T12:13:02.619Z,63
2018-03-16T12:14:03.344Z,63
2018-03-16T12:15:04.079Z,63
2018-03-16T12:16:04.801Z,63
2018-03-16T12:17:05.534Z,63
2018-03-16T12:18:06.294Z,63
2018-03-16T12:19:07.017Z,64
2018-03-16T12:20:07.741Z,64
2018-03-16T12:21:08.490Z,63
2018-03-16T12:22:09.224Z,63
2018-03-16T12:23:09.947Z,64
2018-03-16T12:24:10.667Z,63
2018-03-16T12:25:11.392Z,63
2018-03-16T12:26:12.118Z,64
2018-03-16T12:27:12.842Z,64
2018-03-16T12:28:13.576Z,64
2018-03-16T12:29:14.361Z,63
2018-03-16T12:30:15.098Z,62
2018-03-16T12:31:15.824Z,62
2018-03-16T12:32:16.557Z,63
2018-03-16T12:33:17.315Z,63
2018-03-16T12:34:18.042Z,63
2018-03-16T12:35:18.761Z,63
2018-03-16T12:36:19.496Z,62
2018-03-16T12:37:20.215Z,62
2018-03-16T12:38:20.941Z,63
2018-03-16T12:39:21.667Z,63
2018-03-16T12:40:22.417Z,61
2018-03-16T12:41:23.139Z,63
2018-03-16T12:42:23.862Z,63
2018-03-16T12:43:24.586Z,65
2018-03-16T12:44:25.310Z,64
2018-03-16T12:45:26.057Z,66
2018-03-16T12:46:26.784Z,65
2018-03-16T12:47:27.528Z,64
2018-03-16T12:48:28.253Z,64
2018-03-16T12:49:28.975Z,64
2018-03-16T12:50:29.700Z,65
2018-03-16T12:51:30.459Z,64
2018-03-16T12:52:31.168Z,64
2018-03-16T12:53:31.920Z,62
2018-03-16T12:54:32.622Z,63
2018-03-16T12:55:33.346Z,63
2018-03-16T12:56:34.078Z,62
2018-03-16T12:57:34.800Z,61
2018-03-16T12:58:35.522Z,61
2018-03-16T12:59:36.258Z,63
2018-03-16T13:00:36.982Z,62
2018-03-16T13:01:37.716Z,62
2018-03-16T13:02:38.438Z,62
2018-03-16T13:03:39.161Z,62
2018-03-16T13:04:39.894Z,63
2018-03-16T13:05:40.655Z,63
2018-03-16T13:06:41.377Z,63
2018-03-16T13:07:42.101Z,63
2018-03-16T13:08:42.858Z,63
2018-03-16T13:09:43.579Z,63
2018-03-16T13:10:44.301Z,64
2018-03-16T13:11:45.025Z,64
2018-03-16T13:12:45.771Z,65
2018-03-16T13:13:46.494Z,65
2018-03-16T13:14:47.228Z,65
2018-03-16T13:15:47.964Z,63
2018-03-16T13:16:48.686Z,64
2018-03-16T13:17:49.434Z,63
2018-03-16T13:18:50.155Z,65
2018-03-16T13:19:50.900Z,64
2018-03-16T13:20:51.646Z,64
2018-03-16T13:21:52.393Z,63
2018-03-16T13:22:53.141Z,63
2018-03-16T13:23:53.864Z,62
2018-03-16T13:24:54.600Z,64
2018-03-16T13:25:55.356Z,64
2018-03-16T13:26:56.081Z,63
2018-03-16T13:27:56.805Z,64
2018-03-16T13:28:57.537Z,64
2018-03-16T13:29:58.306Z,64
2018-03-16T13:30:59.090Z,63
2018-03-16T13:31:59.752Z,64
2018-03-16T13:33:00.476Z,64
2018-03-16T13:34:01.196Z,64
2018-03-16T13:35:01.930Z,64
2018-03-16T13:36:02.652Z,64
2018-03-16T13:37:03.376Z,64
2018-03-16T13:38:04.098Z,64
2018-03-16T13:39:04.833Z,64
2018-03-16T13:40:05.567Z,63
2018-03-16T13:41:06.299Z,63
2018-03-16T13:42:07.023Z,64
2018-03-16T13:43:07.754Z,63
2018-03-16T13:44:08.486Z,63
2018-03-16T13:45:09.242Z,65
2018-03-16T13:46:09.997Z,64
2018-03-16T13:47:10.718Z,64
2018-03-16T13:48:11.442Z,64
2018-03-16T13:49:12.163Z,64
2018-03-16T13:50:12.883Z,66
2018-03-16T13:51:13.615Z,67
2018-03-16T13:52:14.450Z,65
2018-03-16T13:53:15.091Z,66
2018-03-16T13:54:15.818Z,66
2018-03-16T13:55:16.546Z,67
2018-03-16T13:56:17.269Z,67
2018-03-16T13:57:18.000Z,67
2018-03-16T13:58:18.720Z,67
2018-03-16T13:59:19.439Z,66
2018-03-16T14:00:20.164Z,66
2018-03-16T14:01:20.894Z,66
2018-03-16T14:02:21.623Z,66
2018-03-16T14:03:22.350Z,66
2018-03-16T14:04:23.109Z,66
2018-03-16T14:05:23.833Z,67
2018-03-16T14:06:24.564Z,65
2018-03-16T14:07:25.283Z,65
2018-03-16T14:08:26.003Z,65
2018-03-16T14:09:26.727Z,64
2018-03-16T14:10:27.462Z,66
2018-03-16T14:11:28.194Z,66
2018-03-16T14:12:28.916Z,66
2018-03-16T14:13:29.639Z,65
2018-03-16T14:14:30.386Z,65
2018-03-16T14:15:31.118Z,65
2018-03-16T14:16:31.849Z,64
2018-03-16T14:17:32.572Z,65
2018-03-16T14:18:33.303Z,64
2018-03-16T14:19:34.025Z,64
2018-03-16T14:20:34.744Z,65
2018-03-16T14:21:35.466Z,65
2018-03-16T14:22:36.186Z,65
2018-03-16T14:23:36.908Z,65
2018-03-16T14:24:37.640Z,65
2018-03-16T14:25:38.374Z,65
2018-03-16T14:26:39.093Z,65
2018-03-16T14:27:39.817Z,66